Carlsbad Caverns National Pa, New Mexico
Current Conditions -  °F | °C
As of 2:53 PM on Saturday 20 Dec 2014 (Local Time) from KCNM Reporting Station
Clear Clear  
Wind Chill: 58°   Ceiling: Unl
Heat Index: 58°   Visibility: 10mi
Dew Point: 29°   Wind: 7mph
Humidity: 33%   Direction: 130°SE
Pressure: 29.99"   Gusts: NA
Location:  32.3187°N, 104.429°W
Report Text: KCNM 202153Z AUTO 13006KT 10SM CLR 14/M02 A2999 RMK AO2 SLP140 T01441017
Loading
Personal Weather Stations






























Interactive Weather Map New forecast layout! Learn more

10-Day Weather Forecast

Advertisements
Track Severe Weather on mobile